Polarstern — DBLK — position and weather

sailwx.info

Track history (hours):
 
Tides and Currents Weather Stations Pressure Air Temp Water Temp Dewpoint Dewpoint Depression Visibility Wind Speed Wind Dir Waves Ship Positions

Oceanographic research ship Polarstern (Germany)

Detailed information on ship capabilities available from University of Delaware's Ocean Information Center and ARCUS's ALIAS (Arctic Logistics Information and Support) project.

Last reported at 2017-Jul-24 01:00 UTC. Time now 2017-Jul-24 02:26 UTC.
Position N 71°06' E 020°12'.

Length 117.9 m; beam 25 m; draft 10.7 m.

MMSI: 211202460.

Wind from 030 at 8 knots

Barometer 1023.3 mb
Air temperature 12.1 ° C
Dewpoint 7.2 ° C
Water temperature 7.8 ° C

Date/timePositionNaut miles runAvg speedWind from/ knotsBaromVisibWave heightAir tempDewpointWater temp
2017-Jul-24 01:00N 71°06' E 020°12'1313.4 030 / 81023.3 12.1 7.2 7.8
2017-Jul-24 00:00N 70°54' E 020°30'1312.6 030 / 101023.2 11.3 9.3 7.8
2017-Jul-23 23:00N 70°42' E 020°42'1 5.0 030 / 121023.4 11.4 9.2 7.8
2017-Jul-23 22:43N 70°41' E 020°45'312.1
2017-Jul-23 22:29N 70°38' E 020°47'612.3
2017-Jul-23 22:00N 70°33' E 020°46'3168.0
2017-Jul-23 22:00N 70°30' E 020°48'510.5 040 / 141023.3 11.7 8.8 7.8
2017-Jul-23 21:30N 70°25' E 020°40'714.5
2017-Jul-23 21:00N 70°19' E 020°33'1297.7
2017-Jul-23 21:00N 70°18' E 020°30'612.7 020 / 61023.6 11.3 8.9 7.8
2017-Jul-23 20:30N 70°12' E 020°22'714.5
2017-Jul-23 20:00N 70°06' E 020°13'0118.7
2017-Jul-23 20:00N 70°06' E 020°12'714.7 010 / 141023.0 13.5 7.6 7.8
2017-Jul-23 19:30N 69°60' E 020°01'714.4
2017-Jul-23 19:00N 69°53' E 019°51'1146.6
2017-Jul-23 19:00N 69°54' E 019°48'4 9.0 030 / 121023.2 12.1 8.8 7.8
2017-Jul-23 18:30N 69°50' E 019°42'612.2
2017-Jul-23 18:00N 69°48' E 019°25'714.6
2017-Jul-23 17:30N 69°46' E 019°05'4 7.5
2017-Jul-23 17:00N 69°42' E 019°06'127.8 010 / 101023.3 12.4 8.3 7.8
2017-Jul-23 16:58N 69°42' E 019°05'0 0.0
2017-Jul-23 16:28N 69°42' E 019°05'1 1.1
2017-Jul-23 16:00N 69°42' E 019°06'119.9 010 / 101023.2 16.1 7.9 7.8
2017-Jul-23 15:58N 69°42' E 019°05'0 0.0
2017-Jul-23 15:28N 69°42' E 019°05'0 0.0
2017-Jul-23 15:01N 69°42' E 019°05'131.5
2017-Jul-23 15:00N 69°42' E 019°06'1 1.1 010 / 81023.410.8 16.7 7.4 7.8
2017-Jul-23 14:30N 69°42' E 019°05'0 0.0
2017-Jul-23 14:00N 69°42' E 019°05'155.5
2017-Jul-23 14:00N 69°42' E 019°06'1 1.1 010 / 61023.3 17.3 5.4 7.8
2017-Jul-23 13:30N 69°42' E 019°05'0 0.0
2017-Jul-23 13:00N 69°42' E 019°05'1236.8
2017-Jul-23 13:00N 69°42' E 019°06'1 1.0 010 / 21023.7 16.7 6.6 7.8
2017-Jul-23 12:29N 69°42' E 019°05'1 1.1
2017-Jul-23 12:00N 69°42' E 019°06'1104.8 020 / 21023.9 17.3 6.7 7.8
2017-Jul-23 11:59N 69°42' E 019°05'0 0.0
2017-Jul-23 11:29N 69°42' E 019°05'1 1.1
2017-Jul-23 11:00N 69°42' E 019°06'142.0 350 / 21024.0 15.5 6.4 7.8
2017-Jul-23 10:59N 69°42' E 019°05'0 0.0
2017-Jul-23 10:29N 69°42' E 019°05'1 1.1
2017-Jul-23 10:00N 69°42' E 019°06'127.5 360 / 21024.2 15.1 5.9 7.8
2017-Jul-23 09:58N 69°42' E 019°05'0 0.0
2017-Jul-23 09:28N 69°42' E 019°05'1 1.1
2017-Jul-23 09:00N 69°42' E 019°06'119.7 010 / 41024.5 13.9 6.5 7.8
2017-Jul-23 08:58N 69°42' E 019°05'0 0.0
2017-Jul-23 08:28N 69°42' E 019°05'0 0.0
2017-Jul-23 08:00N 69°42' E 019°05'132.5
2017-Jul-23 08:00N 69°42' E 019°06'1 1.1 020 / 21024.6 14.9 5.7 7.8
2017-Jul-23 07:30N 69°42' E 019°05'0 0.0
2017-Jul-23 07:00N 69°42' E 019°05'153.9
2017-Jul-23 07:00N 69°42' E 019°06'1 1.2 1024.6 13.8 8.4 7.8
2017-Jul-23 06:30N 69°42' E 019°04'2 3.0
2017-Jul-23 06:00N 69°42' E 019°00'148.2 080 / 21024.5 14.6 7.2 7.8
2017-Jul-23 05:58N 69°41' E 018°60'0 0.0
2017-Jul-23 05:28N 69°41' E 018°60'0 0.0
2017-Jul-23 05:01N 69°41' E 018°60'0 0.0
2017-Jul-23 04:30N 69°41' E 018°60'0 0.0
2017-Jul-23 04:00N 69°41' E 018°60'0 0.0
2017-Jul-23 03:30N 69°41' E 018°60'0 0.0
2017-Jul-23 03:00N 69°41' E 018°60'0 0.0
2017-Jul-23 02:29N 69°41' E 018°60'0 0.0
2017-Jul-23 01:59N 69°41' E 018°60'0 0.0
2017-Jul-23 01:29N 69°41' E 018°60'0 0.0
2017-Jul-23 00:59N 69°41' E 018°60'0 0.0
2017-Jul-23 00:29N 69°41' E 018°60'0 0.0
2017-Jul-22 23:58N 69°41' E 018°60'0 0.0
2017-Jul-22 23:28N 69°41' E 018°60'0 0.0
2017-Jul-22 22:58N 69°41' E 018°60'0 0.0
2017-Jul-22 22:28N 69°41' E 018°60'0 0.0
2017-Jul-22 21:57N 69°41' E 018°60'0 0.0
2017-Jul-22 21:30N 69°41' E 018°60'0 0.0
2017-Jul-22 21:00N 69°41' E 018°60'0 0.0
2017-Jul-22 20:30N 69°41' E 018°60'0 0.0
2017-Jul-22 20:00N 69°41' E 018°60'0 0.0
2017-Jul-22 19:29N 69°41' E 018°60'0 0.0
2017-Jul-22 18:59N 69°41' E 018°60'0 0.0
2017-Jul-22 18:29N 69°41' E 018°60'0 0.0
2017-Jul-22 17:59N 69°41' E 018°60'0 0.0
2017-Jul-22 17:26N 69°41' E 018°60'0 0.0
2017-Jul-22 16:58N 69°41' E 018°60'0 0.0
2017-Jul-22 16:28N 69°41' E 018°60'0 0.0
2017-Jul-22 15:58N 69°41' E 018°60'0 0.0
2017-Jul-22 15:28N 69°41' E 018°60'0 0.0
2017-Jul-22 14:57N 69°41' E 018°60'0 0.0
2017-Jul-22 14:00N 69°41' E 018°60'0 0.0
2017-Jul-22 13:30N 69°41' E 018°60'0 0.0
2017-Jul-22 13:00N 69°41' E 018°60'0 0.0
2017-Jul-22 12:29N 69°41' E 018°60'0 0.0
2017-Jul-22 11:59N 69°41' E 018°60'0 0.0
2017-Jul-22 11:29N 69°41' E 018°60'0 0.0
2017-Jul-22 10:59N 69°41' E 018°60'0 0.0
2017-Jul-22 10:29N 69°41' E 018°60'0 0.0
2017-Jul-22 09:58N 69°41' E 018°60'0 0.0
2017-Jul-22 09:28N 69°41' E 018°60'0 0.0
2017-Jul-22 08:58N 69°41' E 018°60'0 0.0
2017-Jul-22 08:28N 69°41' E 018°60'0 0.0
2017-Jul-22 08:01N 69°41' E 018°60'0 0.0
2017-Jul-22 07:30N 69°41' E 018°60'0 0.0
2017-Jul-22 07:00N 69°41' E 018°60'0 0.0
2017-Jul-22 06:30N 69°41' E 018°60'0 0.0
2017-Jul-22 05:57N 69°41' E 018°60'0 0.0
2017-Jul-22 05:29N 69°41' E 018°60'0 0.0
2017-Jul-22 04:59N 69°41' E 018°60'0 0.0
2017-Jul-22 04:29N 69°41' E 018°60'0 0.0
2017-Jul-22 03:59N 69°41' E 018°60'0 0.0
2017-Jul-22 03:29N 69°41' E 018°60'0 0.0
2017-Jul-22 02:58N 69°41' E 018°60'0 0.0
2017-Jul-22 02:28N 69°41' E 018°60'0 0.0
2017-Jul-22 01:58N 69°41' E 018°60'0 0.0
2017-Jul-22 01:28N 69°41' E 018°60'0 0.0
2017-Jul-22 01:00N 69°41' E 018°60'0 0.0
2017-Jul-22 00:30N 69°41' E 018°60'0 0.0
2017-Jul-22 00:00N 69°41' E 018°60'0 0.0
2017-Jul-21 23:30N 69°41' E 018°60'0 0.0
2017-Jul-21 23:00N 69°41' E 018°60'0 0.0
2017-Jul-21 22:29N 69°41' E 018°60'0 0.0
2017-Jul-21 21:59N 69°41' E 018°60'0 0.0
2017-Jul-21 21:29N 69°41' E 018°60'0 0.0
2017-Jul-21 20:59N 69°41' E 018°60'0 0.0
2017-Jul-21 20:28N 69°41' E 018°60'0 0.0
2017-Jul-21 19:58N 69°41' E 018°60'0 0.0
2017-Jul-21 19:28N 69°41' E 018°60'0 0.0
2017-Jul-21 18:58N 69°41' E 018°60'0 0.0
2017-Jul-21 18:28N 69°41' E 018°60'0 0.0
2017-Jul-21 18:00N 69°41' E 018°60'0 0.0
2017-Jul-21 17:30N 69°41' E 018°60'0 0.0
2017-Jul-21 17:00N 69°41' E 018°60'0 0.0
2017-Jul-21 16:30N 69°41' E 018°60'0 0.0
2017-Jul-21 16:00N 69°41' E 018°60'0 0.0
2017-Jul-21 15:29N 69°41' E 018°60'0 0.0
2017-Jul-21 14:59N 69°41' E 018°60'0 0.0
2017-Jul-21 14:29N 69°41' E 018°60'0 0.0
2017-Jul-21 13:59N 69°41' E 018°60'0 0.0
2017-Jul-21 13:28N 69°41' E 018°60'1 2.6
2017-Jul-21 13:00N 69°42' E 019°00'159.0 050 / 21021.8 11.1 6.1 7.8
2017-Jul-21 12:58N 69°41' E 018°60'0 0.0
2017-Jul-21 12:28N 69°41' E 018°60'1 2.6
2017-Jul-21 12:00N 69°42' E 019°00'115.9 080 / 21021.7 9.6 6.3 7.8
2017-Jul-21 11:55N 69°41' E 018°60'0 0.0
2017-Jul-21 11:28N 69°41' E 018°60'0 0.0
2017-Jul-21 11:00N 69°41' E 018°60'181.5
2017-Jul-21 11:00N 69°42' E 019°00'1 2.5 060 / 21021.7 10.5 6.6 7.8
2017-Jul-21 10:30N 69°41' E 018°60'0 0.0
2017-Jul-21 10:00N 69°41' E 018°60'1154.5
2017-Jul-21 10:00N 69°42' E 019°00'1 2.5 070 / 41021.5 8.7 6.9 7.8
2017-Jul-21 09:30N 69°41' E 018°60'0 0.0
2017-Jul-21 09:00N 69°41' E 018°60'14459.7
2017-Jul-21 09:00N 69°42' E 019°00'1 2.5 060 / 41021.5 10.3 6.3 7.8
2017-Jul-21 08:29N 69°41' E 018°60'0 0.0
2017-Jul-21 07:59N 69°41' E 018°60'0 0.0
2017-Jul-21 07:29N 69°41' E 018°60'0 0.0
2017-Jul-21 06:59N 69°41' E 018°60'0 0.0
2017-Jul-21 06:28N 69°41' E 018°60'1 2.6
2017-Jul-21 06:00N 69°42' E 019°00'160.6 1021.4 8.7 6.4 7.8
2017-Jul-21 05:58N 69°41' E 018°60'0 0.0
2017-Jul-21 05:28N 69°41' E 018°60'1 2.6
2017-Jul-21 05:00N 69°42' E 019°00'144.8 240 / 21021.4 8.2 6.5 7.8
2017-Jul-21 04:58N 69°41' E 018°60'0 0.0
2017-Jul-21 04:28N 69°41' E 018°60'0 0.0
2017-Jul-21 04:00N 69°41' E 018°60'180.0
2017-Jul-21 04:00N 69°42' E 019°00'1 2.5 1021.1 7.7 6.0 7.8
2017-Jul-21 03:30N 69°41' E 018°60'0 0.0
2017-Jul-21 03:00N 69°41' E 018°60'1166.0
2017-Jul-21 03:00N 69°42' E 019°00'1 2.5 240 / 21020.8 7.8 5.9 7.8
2017-Jul-21 02:30N 69°41' E 018°60'0 0.0
2017-Jul-21 02:00N 69°41' E 018°60'12240.4
2017-Jul-21 02:00N 69°42' E 019°00'1 2.5 220 / 41021.0 7.0 5.2 7.8
2017-Jul-21 01:29N 69°41' E 018°60'1 2.5
2017-Jul-21 01:00N 69°42' E 019°00'1179.2 220 / 21020.9 7.4 5.5 7.8
2017-Jul-21 00:59N 69°41' E 018°60'0 0.0
2017-Jul-21 00:29N 69°41' E 018°60'1 2.5
2017-Jul-21 00:00N 69°42' E 019°00'187.9 1020.8 7.4 6.0 7.8
2017-Jul-20 23:59N 69°41' E 018°60'0 0.0
2017-Jul-20 23:25N 69°41' E 018°60'1 2.9
2017-Jul-20 23:00N 69°42' E 019°00'157.4 220 / 21020.7 7.4 5.9 7.8
2017-Jul-20 22:58N 69°41' E 018°60'0 0.0
2017-Jul-20 22:28N 69°41' E 018°60'1 2.6
2017-Jul-20 22:00N 69°42' E 019°00'144.4 020 / 61020.6 8.6 5.8 7.8
2017-Jul-20 21:58N 69°41' E 018°60'0 0.0
2017-Jul-20 21:28N 69°41' E 018°60'0 0.0
2017-Jul-20 21:00N 69°41' E 018°60'184.5
2017-Jul-20 21:00N 69°42' E 019°00'1 2.5 030 / 81020.6 8.5 6.2 7.8
2017-Jul-20 20:30N 69°41' E 018°60'0 0.0
2017-Jul-20 20:00N 69°41' E 018°60'1171.5
2017-Jul-20 20:00N 69°42' E 019°00'1 2.5 020 / 81020.7 9.0 6.4 7.8
2017-Jul-20 19:30N 69°41' E 018°60'0 0.0
2017-Jul-20 19:00N 69°41' E 018°60'12240.4
2017-Jul-20 19:00N 69°42' E 019°00'1 2.5 010 / 81020.6 9.4 6.1 7.8
2017-Jul-20 18:29N 69°41' E 018°60'1 2.5
2017-Jul-20 18:00N 69°42' E 019°00'1171.5 020 / 81020.8 9.7 5.9 7.8
2017-Jul-20 17:59N 69°41' E 018°60'0 0.0
2017-Jul-20 17:29N 69°41' E 018°60'1 2.5
2017-Jul-20 17:00N 69°42' E 019°00'183.0 040 / 81020.8 9.6 6.0 7.8
2017-Jul-20 16:59N 69°41' E 018°60'0 0.0
2017-Jul-20 16:28N 69°41' E 018°60'1 2.6
2017-Jul-20 16:00N 69°42' E 019°00'156.7 030 / 81020.8 9.9 5.7 7.8
2017-Jul-20 15:58N 69°41' E 018°60'0 0.0
2017-Jul-20 15:28N 69°41' E 018°60'1 2.6
2017-Jul-20 15:00N 69°42' E 019°00'143.1 050 / 81020.6 10.2 5.5 7.8
2017-Jul-20 14:58N 69°41' E 018°60'0 0.0
2017-Jul-20 14:00N 69°41' E 018°60'189.6
2017-Jul-20 14:00N 69°42' E 019°00'1 2.5 050 / 61020.6 10.1 5.1 7.8
2017-Jul-20 13:30N 69°41' E 018°60'0 0.0
2017-Jul-20 13:00N 69°41' E 018°60'1166.0
2017-Jul-20 13:00N 69°42' E 019°00'1 2.5 050 / 61020.6 11.5 6.3 7.8
2017-Jul-20 12:30N 69°41' E 018°60'0 0.0
2017-Jul-20 12:00N 69°41' E 018°60'0 0.0
2017-Jul-20 11:29N 69°41' E 018°60'1 2.5
2017-Jul-20 11:00N 69°42' E 019°00'1166.0 100 / 61020.4 9.2 5.6 7.8
2017-Jul-20 10:59N 69°41' E 018°60'0 0.0
2017-Jul-20 10:29N 69°41' E 018°60'1 2.5
2017-Jul-20 10:00N 69°42' E 019°00'187.9 050 / 61020.2 10.9 6.5 7.8
2017-Jul-20 09:59N 69°41' E 018°60'0 0.0
2017-Jul-20 09:28N 69°41' E 018°60'1 2.6
2017-Jul-20 09:00N 69°42' E 019°00'156.5 170 / 21020.0 8.8 6.4 7.8
2017-Jul-20 08:58N 69°41' E 018°60'0 0.0
2017-Jul-20 08:28N 69°41' E 018°60'1 2.6
2017-Jul-20 08:00N 69°42' E 019°00'142.7 190 / 21020.0 7.9 6.7 7.8
2017-Jul-20 07:58N 69°41' E 018°60'0 0.0
2017-Jul-20 07:28N 69°41' E 018°60'0 0.0
2017-Jul-20 07:00N 69°41' E 018°60'1112.0
2017-Jul-20 07:00N 69°42' E 019°00'1 2.5 070 / 41020.0 7.6 6.5 7.8
2017-Jul-20 06:30N 69°41' E 018°60'2 4.8
2017-Jul-20 06:00N 69°43' E 019°03'1551.4
2017-Jul-20 06:00N 69°42' E 019°00'510.3 200 / 41019.8 7.7 6.3 7.9
2017-Jul-20 05:30N 69°46' E 019°08'4 8.2
2017-Jul-20 05:00N 69°48' E 019°19'049.8
2017-Jul-20 05:00N 69°48' E 019°18'4 8.8 250 / 121019.4 7.6 6.3 8.4
2017-Jul-20 04:30N 69°49' E 019°30'4 8.3
2017-Jul-20 04:00N 69°48' E 019°42'39143.8 260 / 161019.0 7.8 6.4 8.6
2017-Jul-20 03:59N 69°51' E 019°41'4 8.2
2017-Jul-20 03:30N 69°53' E 019°50'5 9.5
2017-Jul-20 03:00N 69°57' E 019°57'31120.2
2017-Jul-20 03:00N 70°00' E 020°00'2 4.3 310 / 121019.2 7.6 7.1 8.7
2017-Jul-20 02:30N 70°02' E 020°04'5 9.3
2017-Jul-20 02:00N 70°05' E 020°11'177.8
2017-Jul-20 02:00N 70°06' E 020°12'4 7.6 320 / 61018.8 7.9 7.0 9.5
2017-Jul-20 01:30N 70°09' E 020°18'4 7.9
2017-Jul-20 01:00N 70°13' E 020°23'139.4
2017-Jul-20 01:00N 70°12' E 020°24'4 8.6 310 / 81018.5 7.6 6.6 9.6
2017-Jul-20 00:30N 70°16' E 020°29'4 7.6
2017-Jul-20 00:00N 70°19' E 020°34'2201.1
2017-Jul-20 00:00N 70°18' E 020°36'510.2 290 / 161017.8 7.8 7.1 9.1
2017-Jul-19 23:30N 70°23' E 020°37'4 8.4
2017-Jul-19 23:01N 70°27' E 020°41'3187.3
2017-Jul-19 23:00N 70°30' E 020°42'2 3.4 290 / 171017.0 7.9 7.1 9.6
2017-Jul-19 22:30N 70°31' E 020°46'4 8.7
2017-Jul-19 22:00N 70°35' E 020°50'1443.3
2017-Jul-19 22:00N 70°36' E 020°48'4 8.1 300 / 171016.7 8.8 7.5 9.6
2017-Jul-19 21:30N 70°39' E 020°54'3 6.3
2017-Jul-19 21:00N 70°42' E 021°00'1212.2 300 / 171016.3 8.6 7.710.2
2017-Jul-19 20:00N 70°54' E 021°06'7 7.2 310 / 161015.7 9.1 7.7 9.8
2017-Jul-19 19:00N 71°00' E 021°18'1212.2 320 / 171015.4 8.8 7.7 9.5
2017-Jul-19 18:00N 71°12' E 021°24'7 7.1 320 / 191015.0 2.2 8.8 7.8 9.2
2017-Jul-19 17:00N 71°18' E 021°36'1212.2 310 / 191014.0 8.8 8.0 9.7
2017-Jul-19 16:00N 71°30' E 021°42'7 7.1 310 / 191013.4 8.8 8.2 9.4
2017-Jul-19 15:00N 71°36' E 021°54'13 6.3 310 / 231012.7 1.1 8.5 8.2 9.4
2017-Jul-19 13:00N 71°48' E 022°06'7 7.1 310 / 231011.1 8.8 7.9 9.3
2017-Jul-19 12:00N 71°54' E 022°18'1212.1 310 / 251010.0 2.2 8.6 7.8 9.8
2017-Jul-19 11:00N 72°06' E 022°24'7 7.0 310 / 251008.7 8.1 7.2 9.6
2017-Jul-19 10:00N 72°12' E 022°36'1212.1 290 / 251007.7 7.9 6.7 9.3
2017-Jul-19 09:00N 72°24' E 022°42'1212.1 280 / 251007.2 5.4 8.0 7.4 9.2
2017-Jul-19 08:00N 72°36' E 022°48'8 8.1 270 / 211006.1 7.8 7.5 9.0
2017-Jul-19 07:00N 72°42' E 023°06'6 6.3 270 / 251005.6 8.1 6.9 9.1
2017-Jul-19 06:00N 72°48' E 023°12'7 7.0 270 / 231004.9 5.4 8.2 7.3 9.1
2017-Jul-19 05:00N 72°54' E 023°24'1312.5 270 / 191004.5 7.9 7.4 8.8
2017-Jul-19 04:00N 73°06' E 023°36'6 6.2 270 / 171004.1 7.5 7.3 8.6
2017-Jul-19 03:00N 73°12' E 023°42'1212.5 270 / 141004.0 7.6 7.4 8.4
2017-Jul-19 02:00N 73°24' E 023°54'7 6.9 260 / 81003.5 7.8 7.8 8.1
2017-Jul-19 01:00N 73°30' E 024°06'6 6.2 100 / 81003.3 7.7 7.7 7.9
2017-Jul-19 00:00N 73°36' E 024°12'1212.5 100 / 121003.5 7.5 7.5 7.6
2017-Jul-18 23:00N 73°48' E 024°24'7 6.9 090 / 141003.8 7.3 7.3 7.3
2017-Jul-18 22:00N 73°54' E 024°36'6 6.2 090 / 121003.9 7.3 7.2 7.3
2017-Jul-18 21:00N 74°00' E 024°42'1212.4 080 / 171003.8 7.2 7.0 7.2
2017-Jul-18 20:00N 74°12' E 024°54'7 6.8 080 / 191003.7 7.0 6.6 7.2
2017-Jul-18 19:00N 74°18' E 025°06'6 6.2 080 / 171004.4 6.8 6.6 6.9
2017-Jul-18 18:00N 74°24' E 025°12'1212.4 080 / 191004.7 5.4 6.9 6.6 6.8
2017-Jul-18 17:00N 74°36' E 025°24'7 6.8 090 / 171005.3 7.0 6.5 6.8
2017-Jul-18 16:00N 74°42' E 025°36'7 6.8 090 / 191005.9 7.0 6.6 6.9
2017-Jul-18 15:00N 74°48' E 025°48'1212.1 090 / 171006.4 5.4 7.0 6.7 6.6
2017-Jul-18 14:00N 75°00' E 025°54'7 6.8 100 / 171007.2 7.2 6.8 6.3
2017-Jul-18 13:00N 75°06' E 026°06'1212.4 100 / 171007.4 7.2 6.7 6.0
2017-Jul-18 12:00N 75°18' E 026°18'7 6.7 100 / 161008.510.8 7.2 6.2 6.1
2017-Jul-18 11:00N 75°24' E 026°30'1312.8 100 / 161008.6 7.2 6.2 6.1
2017-Jul-18 10:00N 75°36' E 026°48'7 6.7 120 / 141009.2 7.1 6.3 6.0
2017-Jul-18 09:00N 75°42' E 027°00'6 6.2 110 / 171009.2 5.4 6.6 6.1 4.9
2017-Jul-18 08:00N 75°48' E 027°06'6 6.2 110 / 171009.4 6.4 5.8 5.4
2017-Jul-18 07:00N 75°54' E 027°12'7 6.7 120 / 171009.4 6.1 5.7 5.5
2017-Jul-18 06:00N 76°00' E 027°24'1212.3 110 / 171010.010.8 5.9 5.3 5.4
2017-Jul-18 05:00N 76°12' E 027°36'7 6.6 110 / 171010.0 5.4 5.0 4.5
2017-Jul-18 04:00N 76°18' E 027°48'1212.3 110 / 161010.3 5.8 5.0 3.7
2017-Jul-18 03:00N 76°30' E 028°00'7 7.3 100 / 141010.9 5.4 4.9 3.7
2017-Jul-18 02:00N 76°36' E 028°18'1212.1 110 / 121011.2 5.2 4.7 3.4
2017-Jul-18 01:00N 76°48' E 028°12'7 7.3 100 / 121011.3 4.8 4.5 3.0
2017-Jul-18 00:00N 76°54' E 027°54'1212.3 080 / 81011.3 4.4 4.2 2.7
2017-Jul-17 23:00N 77°06' E 027°42'7 7.2 090 / 61011.0 5.3 5.3 2.7
2017-Jul-17 22:00N 77°12' E 027°24'1312.6 140 / 61011.2 3.9 3.9 1.9
2017-Jul-17 21:00N 77°24' E 027°06'7 6.5 160 / 41010.6 3.3 3.2 1.7
2017-Jul-17 20:00N 77°30' E 026°54'1312.6 190 / 61010.0 3.8 3.8 0.2
2017-Jul-17 19:00N 77°42' E 026°36'6 6.1 210 / 101009.8 3.2 3.2-0.6
2017-Jul-17 18:00N 77°48' E 026°30'7 6.5 210 / 101009.2 0.1 0.8 0.8-1.2
2017-Jul-17 17:00N 77°54' E 026°18'1 1.3 200 / 101008.4 1.1 1.1-1.5
2017-Jul-17 16:00N 77°54' E 026°12'6 6.1 180 / 121007.9 1.4 1.3-1.5
2017-Jul-17 15:00N 78°00' E 026°06'6 6.5 170 / 81007.3 0.3 2.0 2.0-1.3
2017-Jul-17 14:00N 78°06' E 025°54'6 6.5 200 / 121006.8 1.2 1.2-1.2
2017-Jul-17 13:00N 78°12' E 025°42'1312.5 170 / 161006.7 1.3 1.2-0.1
2017-Jul-17 12:00N 78°24' E 025°24'6 6.5 150 / 171006.1 0.1 1.6 1.6 0.8
2017-Jul-17 11:00N 78°30' E 025°12'0 0.0 150 / 171005.9 1.4 1.2-0.8
2017-Jul-17 10:00N 78°30' E 025°12'1 1.2 150 / 171005.6 1.5 1.5-0.5
2017-Jul-17 09:00N 78°30' E 025°06'6 6.5 140 / 191005.3 5.4 1.7 1.6 0.3
2017-Jul-17 08:00N 78°36' E 024°54'8 7.6 150 / 191005.3 2.2 2.0 2.4
2017-Jul-17 07:00N 78°42' E 024°30'1 1.2 140 / 121005.2 2.4 2.3 0.2
2017-Jul-17 06:00N 78°42' E 024°24'1 1.2 150 / 141005.010.8 2.4 2.1 1.4
2017-Jul-17 05:00N 78°42' E 024°30'0 0.0 140 / 161004.9 1.8 1.8 0.1
2017-Jul-17 04:00N 78°42' E 024°30'0 0.0 140 / 171004.9 1.4 1.4-0.0
2017-Jul-17 03:00N 78°42' E 024°30'2 2.4 150 / 161005.2 1.5 1.5 0.9
2017-Jul-17 02:00N 78°42' E 024°42'1 1.2 180 / 231004.6 1.6 1.6 0.2
2017-Jul-17 01:00N 78°42' E 024°36'1 1.2 170 / 191004.6 1.7 1.7 0.8
2017-Jul-17 00:00N 78°42' E 024°30'1 1.2 180 / 211004.3 1.6 1.6 1.0
2017-Jul-16 23:00N 78°42' E 024°24'0 0.0 190 / 191004.0 1.9 1.9 1.1
2017-Jul-16 22:00N 78°42' E 024°24'1 1.2 160 / 161004.0 1.5 1.5 1.1
2017-Jul-16 21:00N 78°42' E 024°18'0 0.0 160 / 141003.9 1.2 1.2 1.5
2017-Jul-16 20:00N 78°42' E 024°18'0 0.0 140 / 121003.7 1.0 0.8 1.6
2017-Jul-16 19:00N 78°42' E 024°18'2 2.4 160 / 61003.7 1.1 1.0-0.0
2017-Jul-16 18:00N 78°42' E 024°06'4 3.5 170 / 61003.710.8 1.1 1.0 1.3
2017-Jul-16 17:00N 78°42' E 023°48'5 4.7 160 / 81003.4 1.0 1.0 0.6
2017-Jul-16 16:00N 78°42' E 023°24'0 0.0 170 / 81003.9 0.8 0.8 0.4
2017-Jul-16 15:00N 78°42' E 023°24'0 0.0 110 / 81003.7 2.2 0.4 0.3 0.8
2017-Jul-16 14:00N 78°42' E 023°24'4 3.5 090 / 101004.0 0.2 0.1 1.4
2017-Jul-16 13:00N 78°42' E 023°06'9 9.4 080 / 121004.5 0.3-0.4 1.2
2017-Jul-16 12:00N 78°42' E 023°54'7 7.1 080 / 121005.5 2.2 -0.1-0.1 0.6
2017-Jul-16 11:00N 78°42' E 024°30'0 0.0 080 / 121006.4 -0.2-0.2-0.5
2017-Jul-16 10:00N 78°42' E 024°30'6 6.4 080 / 141007.0 -0.1-0.1 0.7
2017-Jul-16 09:00N 78°36' E 024°42'8 7.7 090 / 141007.7 2.2 -0.0-0.1 0.2
2017-Jul-16 08:00N 78°30' E 025°06'0 0.0 090 / 141008.6 -0.2-0.3-0.8
2017-Jul-16 07:00N 78°30' E 025°06'1 1.2 080 / 141008.9 -0.2-0.2 0.4
2017-Jul-16 06:00N 78°30' E 025°12'8 7.7 090 / 121010.3 5.4 -0.2-0.2-0.6
2017-Jul-16 05:00N 78°36' E 024°48'7 7.0 100 / 141010.7 -0.1-0.1 2.0
2017-Jul-16 04:00N 78°42' E 024°30'6 6.4 100 / 121012.1 -0.3-0.3 0.8
2017-Jul-16 03:00N 78°48' E 024°42'6 6.4 100 / 101013.0 -0.3-0.3-1.5
2017-Jul-16 02:00N 78°54' E 024°54'8 7.6 100 / 81013.3 -0.0-0.0-1.2
2017-Jul-16 01:00N 79°00' E 025°18'3 3.4 140 / 81014.2 -0.1-0.1-1.0
2017-Jul-16 00:00N 79°00' E 025°36'8 7.5 150 / 81014.6 -0.4-0.4-0.7
2017-Jul-15 23:00N 79°06' E 026°00'8 7.5 140 / 61015.1 -0.2-0.2-1.2
2017-Jul-15 22:00N 79°12' E 026°24'7 7.5 180 / 81015.2 -0.5-0.5-1.3
2017-Jul-15 21:00N 79°18' E 026°48'7 6.9 180 / 81015.6 -0.1-0.3-1.2
2017-Jul-15 20:00N 79°24' E 027°06'1 1.1 180 / 61015.7 0.2-0.2-0.6
2017-Jul-15 19:00N 79°24' E 027°12'0 0.0 170 / 81015.5 0.8-0.0-1.3
2017-Jul-15 18:00N 79°24' E 027°12'6 6.1 170 / 81015.710.8 1.6-0.0-1.1
2017-Jul-15 17:00N 79°18' E 027°06'1 1.1 160 / 81015.7 1.6-0.1-1.0
2017-Jul-15 16:00N 79°18' E 027°00'8 8.2 190 / 21015.4 1.7 0.1-1.2
2017-Jul-15 15:00N 79°24' E 027°30'0 0.0 190 / 61015.610.8 1.9 0.7-1.4
2017-Jul-15 14:00N 79°24' E 027°30'2 2.2 170 / 121015.2 2.5 0.5-1.1
2017-Jul-15 13:00N 79°24' E 027°18'7 6.6 200 / 81014.9 4.6 1.8-0.8
2017-Jul-15 12:00N 79°24' E 027°54'6 6.4 200 / 121014.710.8 1.8 0.2-1.3
2017-Jul-15 11:00N 79°30' E 028°06'0 0.0 180 / 101014.5 2.1 0.5-1.5
2017-Jul-15 10:00N 79°30' E 028°06'3 3.3 170 / 61014.0 1.9 0.2-1.5
2017-Jul-15 09:00N 79°30' E 028°24'6 6.4 200 / 81013.627.0 1.4 0.2-1.6
2017-Jul-15 08:00N 79°36' E 028°36'6 6.4 180 / 61012.8 1.2-0.0-1.5
2017-Jul-15 07:00N 79°42' E 028°48'3 3.2 220 / 101012.2 1.2-0.1-1.3
2017-Jul-15 06:00N 79°42' E 029°06'7 6.8 220 / 161011.310.8 1.6-0.1-1.3
2017-Jul-15 05:00N 79°48' E 029°24'7 6.8 220 / 121010.8 1.4-0.8-1.6
2017-Jul-15 04:00N 79°54' E 029°42'7 6.8 230 / 161009.7 1.5-0.6-1.7
2017-Jul-15 03:00N 80°00' E 030°00'6 6.1 240 / 161009.2 2.7-0.6-1.7
2017-Jul-15 02:00N 80°06' E 029°54'6 6.1 230 / 161008.2 2.6-0.6-1.7
2017-Jul-15 01:00N 80°12' E 030°00'6 6.3 250 / 141007.1 1.9-0.6-1.7
2017-Jul-15 00:00N 80°18' E 029°48'6 6.0 250 / 211006.0 3.3 0.2-1.7
2017-Jul-14 23:00N 80°24' E 029°48'2 2.0 240 / 171005.0 1.7 0.3-1.7
2017-Jul-14 22:00N 80°24' E 029°36'1212.0 250 / 231003.4 1.7 0.3-1.7
2017-Jul-14 21:00N 80°36' E 029°36'1 1.0 260 / 231002.5 1.4-0.0-1.7
2017-Jul-14 20:00N 80°36' E 029°30'0 0.0 250 / 291001.2 1.1 0.2-1.6
2017-Jul-14 19:00N 80°36' E 029°30'4 3.9 250 / 251000.6 0.4-0.0-1.7
2017-Jul-14 18:00N 80°36' E 029°06'7 7.2 250 / 231000.2 2.2 0.4-0.1-1.7
2017-Jul-14 17:00N 80°42' E 028°42'7 7.1 250 / 27998.9 0.3-0.1-1.6
2017-Jul-14 16:00N 80°48' E 028°18'7 6.6 240 / 25997.8 -0.1-0.1-1.6
2017-Jul-14 15:00N 80°54' E 028°00'2 1.9 250 / 25997.3 2.2 -0.1-0.5-1.6
2017-Jul-14 14:00N 80°54' E 027°48'7 7.1 240 / 29996.5 0.5-0.7-1.6
2017-Jul-14 13:00N 81°00' E 027°24'5 4.7 240 / 29996.0 0.3-0.5-1.6
2017-Jul-14 12:00N 81°00' E 026°54'1 0.9 230 / 25995.810.8 0.1-0.5-1.6
2017-Jul-14 11:00N 81°00' E 026°48'2 1.9 240 / 25995.7 -0.0-0.8-1.6
2017-Jul-14 10:00N 81°00' E 026°36'7 6.6 230 / 23995.2 -0.1-0.7-1.7
2017-Jul-14 09:00N 81°06' E 026°18'6 5.6 240 / 21994.910.8 -0.0-0.5-1.6
2017-Jul-14 08:00N 81°06' E 025°42'5 4.6 240 / 23994.5 -0.3-0.7-1.6
2017-Jul-14 07:00N 81°06' E 025°12'6 5.6 250 / 21994.2 -0.3-0.5-1.6
2017-Jul-14 06:00N 81°06' E 024°36'6 5.6 250 / 21993.810.8 -0.3-0.6-1.7
2017-Jul-14 05:00N 81°06' E 024°00'6 6.5 250 / 19993.6 -0.3-0.3-1.6
2017-Jul-14 04:00N 81°06' E 023°18'4 3.7 250 / 16994.0 -0.2-0.2-1.6
2017-Jul-14 03:00N 81°06' E 022°54'6 6.5 270 / 14994.2 -0.2-0.3-1.7
2017-Jul-14 02:00N 81°06' E 022°12'8 8.2 300 / 10994.7 0.3 0.3-1.6
2017-Jul-14 01:00N 81°12' E 021°36'   340 / 8995.4 -0.1-0.1-1.6
Track history (hours):
 
Tides and Currents Weather Stations Pressure Air Temp Water Temp Dewpoint Dewpoint Depression Visibility Wind Speed Wind Dir Waves Ship Positions

Oceanographic research ship Polarstern (Germany)

Detailed information on ship capabilities available from University of Delaware's Ocean Information Center and ARCUS's ALIAS (Arctic Logistics Information and Support) project.

Last reported at 2017-Jul-24 01:00 UTC. Time now 2017-Jul-24 02:26 UTC.
Position N 71°06' E 020°12'.

Length 117.9 m; beam 25 m; draft 10.7 m.

MMSI: 211202460.

Wind from 030 at 8 knots

Barometer 1023.3 mb
Air temperature 12.1 ° C
Dewpoint 7.2 ° C
Water temperature 7.8 ° C

Date/timePositionNaut miles runAvg speedWind from/ knotsBaromVisibWave heightAir tempDewpointWater temp
2017-Jul-24 01:00N 71°06' E 020°12'1313.4 030 / 81023.3 12.1 7.2 7.8
2017-Jul-24 00:00N 70°54' E 020°30'1312.6 030 / 101023.2 11.3 9.3 7.8
2017-Jul-23 23:00N 70°42' E 020°42'1 5.0 030 / 121023.4 11.4 9.2 7.8
2017-Jul-23 22:43N 70°41' E 020°45'312.1
2017-Jul-23 22:29N 70°38' E 020°47'612.3
2017-Jul-23 22:00N 70°33' E 020°46'3168.0
2017-Jul-23 22:00N 70°30' E 020°48'510.5 040 / 141023.3 11.7 8.8 7.8
2017-Jul-23 21:30N 70°25' E 020°40'714.5
2017-Jul-23 21:00N 70°19' E 020°33'1297.7
2017-Jul-23 21:00N 70°18' E 020°30'612.7 020 / 61023.6 11.3 8.9 7.8
2017-Jul-23 20:30N 70°12' E 020°22'714.5
2017-Jul-23 20:00N 70°06' E 020°13'0118.7
2017-Jul-23 20:00N 70°06' E 020°12'714.7 010 / 141023.0 13.5 7.6 7.8
2017-Jul-23 19:30N 69°60' E 020°01'714.4
2017-Jul-23 19:00N 69°53' E 019°51'1146.6
2017-Jul-23 19:00N 69°54' E 019°48'4 9.0 030 / 121023.2 12.1 8.8 7.8
2017-Jul-23 18:30N 69°50' E 019°42'612.2
2017-Jul-23 18:00N 69°48' E 019°25'714.6
2017-Jul-23 17:30N 69°46' E 019°05'4 7.5
2017-Jul-23 17:00N 69°42' E 019°06'127.8 010 / 101023.3 12.4 8.3 7.8
2017-Jul-23 16:58N 69°42' E 019°05'0 0.0
2017-Jul-23 16:28N 69°42' E 019°05'1 1.1
2017-Jul-23 16:00N 69°42' E 019°06'119.9 010 / 101023.2 16.1 7.9 7.8
2017-Jul-23 15:58N 69°42' E 019°05'0 0.0
2017-Jul-23 15:28N 69°42' E 019°05'0 0.0
2017-Jul-23 15:01N 69°42' E 019°05'131.5
2017-Jul-23 15:00N 69°42' E 019°06'1 1.1 010 / 81023.410.8 16.7 7.4 7.8
2017-Jul-23 14:30N 69°42' E 019°05'0 0.0
2017-Jul-23 14:00N 69°42' E 019°05'155.5
2017-Jul-23 14:00N 69°42' E 019°06'1 1.1 010 / 61023.3 17.3 5.4 7.8
2017-Jul-23 13:30N 69°42' E 019°05'0 0.0
2017-Jul-23 13:00N 69°42' E 019°05'1236.8
2017-Jul-23 13:00N 69°42' E 019°06'1 1.0 010 / 21023.7 16.7 6.6 7.8
2017-Jul-23 12:29N 69°42' E 019°05'1 1.1
2017-Jul-23 12:00N 69°42' E 019°06'1104.8 020 / 21023.9 17.3 6.7 7.8
2017-Jul-23 11:59N 69°42' E 019°05'0 0.0
2017-Jul-23 11:29N 69°42' E 019°05'1 1.1
2017-Jul-23 11:00N 69°42' E 019°06'142.0 350 / 21024.0 15.5 6.4 7.8
2017-Jul-23 10:59N 69°42' E 019°05'0 0.0
2017-Jul-23 10:29N 69°42' E 019°05'1 1.1
2017-Jul-23 10:00N 69°42' E 019°06'127.5 360 / 21024.2 15.1 5.9 7.8
2017-Jul-23 09:58N 69°42' E 019°05'0 0.0
2017-Jul-23 09:28N 69°42' E 019°05'1 1.1
2017-Jul-23 09:00N 69°42' E 019°06'119.7 010 / 41024.5 13.9 6.5 7.8
2017-Jul-23 08:58N 69°42' E 019°05'0 0.0
2017-Jul-23 08:28N 69°42' E 019°05'0 0.0
2017-Jul-23 08:00N 69°42' E 019°05'132.5
2017-Jul-23 08:00N 69°42' E 019°06'1 1.1 020 / 21024.6 14.9 5.7 7.8
2017-Jul-23 07:30N 69°42' E 019°05'0 0.0
2017-Jul-23 07:00N 69°42' E 019°05'153.9
2017-Jul-23 07:00N 69°42' E 019°06'1 1.2 1024.6 13.8 8.4 7.8
2017-Jul-23 06:30N 69°42' E 019°04'2 3.0
2017-Jul-23 06:00N 69°42' E 019°00'148.2 080 / 21024.5 14.6 7.2 7.8
2017-Jul-23 05:58N 69°41' E 018°60'0 0.0
2017-Jul-23 05:28N 69°41' E 018°60'0 0.0
2017-Jul-23 05:01N 69°41' E 018°60'0 0.0
2017-Jul-23 04:30N 69°41' E 018°60'0 0.0
2017-Jul-23 04:00N 69°41' E 018°60'0 0.0
2017-Jul-23 03:30N 69°41' E 018°60'0 0.0
2017-Jul-23 03:00N 69°41' E 018°60'0 0.0
2017-Jul-23 02:29N 69°41' E 018°60'0 0.0
2017-Jul-23 01:59N 69°41' E 018°60'0 0.0
2017-Jul-23 01:29N 69°41' E 018°60'0 0.0
2017-Jul-23 00:59N 69°41' E 018°60'0 0.0
2017-Jul-23 00:29N 69°41' E 018°60'0 0.0
2017-Jul-22 23:58N 69°41' E 018°60'0 0.0
2017-Jul-22 23:28N 69°41' E 018°60'0 0.0
2017-Jul-22 22:58N 69°41' E 018°60'0 0.0
2017-Jul-22 22:28N 69°41' E 018°60'0 0.0
2017-Jul-22 21:57N 69°41' E 018°60'0 0.0
2017-Jul-22 21:30N 69°41' E 018°60'0 0.0
2017-Jul-22 21:00N 69°41' E 018°60'0 0.0
2017-Jul-22 20:30N 69°41' E 018°60'0 0.0
2017-Jul-22 20:00N 69°41' E 018°60'0 0.0
2017-Jul-22 19:29N 69°41' E 018°60'0 0.0
2017-Jul-22 18:59N 69°41' E 018°60'0 0.0
2017-Jul-22 18:29N 69°41' E 018°60'0 0.0
2017-Jul-22 17:59N 69°41' E 018°60'0 0.0
2017-Jul-22 17:26N 69°41' E 018°60'0 0.0
2017-Jul-22 16:58N 69°41' E 018°60'0 0.0
2017-Jul-22 16:28N 69°41' E 018°60'0 0.0
2017-Jul-22 15:58N 69°41' E 018°60'0 0.0
2017-Jul-22 15:28N 69°41' E 018°60'0 0.0
2017-Jul-22 14:57N 69°41' E 018°60'0 0.0
2017-Jul-22 14:00N 69°41' E 018°60'0 0.0
2017-Jul-22 13:30N 69°41' E 018°60'0 0.0
2017-Jul-22 13:00N 69°41' E 018°60'0 0.0
2017-Jul-22 12:29N 69°41' E 018°60'0 0.0
2017-Jul-22 11:59N 69°41' E 018°60'0 0.0
2017-Jul-22 11:29N 69°41' E 018°60'0 0.0
2017-Jul-22 10:59N 69°41' E 018°60'0 0.0
2017-Jul-22 10:29N 69°41' E 018°60'0 0.0
2017-Jul-22 09:58N 69°41' E 018°60'0 0.0
2017-Jul-22 09:28N 69°41' E 018°60'0 0.0
2017-Jul-22 08:58N 69°41' E 018°60'0 0.0
2017-Jul-22 08:28N 69°41' E 018°60'0 0.0
2017-Jul-22 08:01N 69°41' E 018°60'0 0.0
2017-Jul-22 07:30N 69°41' E 018°60'0 0.0
2017-Jul-22 07:00N 69°41' E 018°60'0 0.0
2017-Jul-22 06:30N 69°41' E 018°60'0 0.0
2017-Jul-22 05:57N 69°41' E 018°60'0 0.0
2017-Jul-22 05:29N 69°41' E 018°60'0 0.0
2017-Jul-22 04:59N 69°41' E 018°60'0 0.0
2017-Jul-22 04:29N 69°41' E 018°60'0 0.0
2017-Jul-22 03:59N 69°41' E 018°60'0 0.0
2017-Jul-22 03:29N 69°41' E 018°60'0 0.0
2017-Jul-22 02:58N 69°41' E 018°60'0 0.0
2017-Jul-22 02:28N 69°41' E 018°60'0 0.0
2017-Jul-22 01:58N 69°41' E 018°60'0 0.0
2017-Jul-22 01:28N 69°41' E 018°60'0 0.0
2017-Jul-22 01:00N 69°41' E 018°60'0 0.0
2017-Jul-22 00:30N 69°41' E 018°60'0 0.0
2017-Jul-22 00:00N 69°41' E 018°60'0 0.0
2017-Jul-21 23:30N 69°41' E 018°60'0 0.0
2017-Jul-21 23:00N 69°41' E 018°60'0 0.0
2017-Jul-21 22:29N 69°41' E 018°60'0 0.0
2017-Jul-21 21:59N 69°41' E 018°60'0 0.0
2017-Jul-21 21:29N 69°41' E 018°60'0 0.0
2017-Jul-21 20:59N 69°41' E 018°60'0 0.0
2017-Jul-21 20:28N 69°41' E 018°60'0 0.0
2017-Jul-21 19:58N 69°41' E 018°60'0 0.0
2017-Jul-21 19:28N 69°41' E 018°60'0 0.0
2017-Jul-21 18:58N 69°41' E 018°60'0 0.0
2017-Jul-21 18:28N 69°41' E 018°60'0 0.0
2017-Jul-21 18:00N 69°41' E 018°60'0 0.0
2017-Jul-21 17:30N 69°41' E 018°60'0 0.0
2017-Jul-21 17:00N 69°41' E 018°60'0 0.0
2017-Jul-21 16:30N 69°41' E 018°60'0 0.0
2017-Jul-21 16:00N 69°41' E 018°60'0 0.0
2017-Jul-21 15:29N 69°41' E 018°60'0 0.0
2017-Jul-21 14:59N 69°41' E 018°60'0 0.0
2017-Jul-21 14:29N 69°41' E 018°60'0 0.0
2017-Jul-21 13:59N 69°41' E 018°60'0 0.0
2017-Jul-21 13:28N 69°41' E 018°60'1 2.6
2017-Jul-21 13:00N 69°42' E 019°00'159.0 050 / 21021.8 11.1 6.1 7.8
2017-Jul-21 12:58N 69°41' E 018°60'0 0.0
2017-Jul-21 12:28N 69°41' E 018°60'1 2.6
2017-Jul-21 12:00N 69°42' E 019°00'115.9 080 / 21021.7 9.6 6.3 7.8
2017-Jul-21 11:55N 69°41' E 018°60'0 0.0
2017-Jul-21 11:28N 69°41' E 018°60'0 0.0
2017-Jul-21 11:00N 69°41' E 018°60'181.5
2017-Jul-21 11:00N 69°42' E 019°00'1 2.5 060 / 21021.7 10.5 6.6 7.8
2017-Jul-21 10:30N 69°41' E 018°60'0 0.0
2017-Jul-21 10:00N 69°41' E 018°60'1154.5
2017-Jul-21 10:00N 69°42' E 019°00'1 2.5 070 / 41021.5 8.7 6.9 7.8
2017-Jul-21 09:30N 69°41' E 018°60'0 0.0
2017-Jul-21 09:00N 69°41' E 018°60'14459.7
2017-Jul-21 09:00N 69°42' E 019°00'1 2.5 060 / 41021.5 10.3 6.3 7.8
2017-Jul-21 08:29N 69°41' E 018°60'0 0.0
2017-Jul-21 07:59N 69°41' E 018°60'0 0.0
2017-Jul-21 07:29N 69°41' E 018°60'0 0.0
2017-Jul-21 06:59N 69°41' E 018°60'0 0.0
2017-Jul-21 06:28N 69°41' E 018°60'1 2.6
2017-Jul-21 06:00N 69°42' E 019°00'160.6 1021.4 8.7 6.4 7.8
2017-Jul-21 05:58N 69°41' E 018°60'0 0.0
2017-Jul-21 05:28N 69°41' E 018°60'1 2.6
2017-Jul-21 05:00N 69°42' E 019°00'144.8 240 / 21021.4 8.2 6.5 7.8
2017-Jul-21 04:58N 69°41' E 018°60'0 0.0
2017-Jul-21 04:28N 69°41' E 018°60'0 0.0
2017-Jul-21 04:00N 69°41' E 018°60'180.0
2017-Jul-21 04:00N 69°42' E 019°00'1 2.5 1021.1 7.7 6.0 7.8
2017-Jul-21 03:30N 69°41' E 018°60'0 0.0
2017-Jul-21 03:00N 69°41' E 018°60'1166.0
2017-Jul-21 03:00N 69°42' E 019°00'1 2.5 240 / 21020.8 7.8 5.9 7.8
2017-Jul-21 02:30N 69°41' E 018°60'0 0.0
2017-Jul-21 02:00N 69°41' E 018°60'12240.4
2017-Jul-21 02:00N 69°42' E 019°00'1 2.5 220 / 41021.0 7.0 5.2 7.8
2017-Jul-21 01:29N 69°41' E 018°60'1 2.5
2017-Jul-21 01:00N 69°42' E 019°00'1179.2 220 / 21020.9 7.4 5.5 7.8
2017-Jul-21 00:59N 69°41' E 018°60'0 0.0
2017-Jul-21 00:29N 69°41' E 018°60'1 2.5
2017-Jul-21 00:00N 69°42' E 019°00'187.9 1020.8 7.4 6.0 7.8
2017-Jul-20 23:59N 69°41' E 018°60'0 0.0
2017-Jul-20 23:25N 69°41' E 018°60'1 2.9
2017-Jul-20 23:00N 69°42' E 019°00'157.4 220 / 21020.7 7.4 5.9 7.8
2017-Jul-20 22:58N 69°41' E 018°60'0 0.0
2017-Jul-20 22:28N 69°41' E 018°60'1 2.6
2017-Jul-20 22:00N 69°42' E 019°00'144.4 020 / 61020.6 8.6 5.8 7.8
2017-Jul-20 21:58N 69°41' E 018°60'0 0.0
2017-Jul-20 21:28N 69°41' E 018°60'0 0.0
2017-Jul-20 21:00N 69°41' E 018°60'184.5
2017-Jul-20 21:00N 69°42' E 019°00'1 2.5 030 / 81020.6 8.5 6.2 7.8
2017-Jul-20 20:30N 69°41' E 018°60'0 0.0
2017-Jul-20 20:00N 69°41' E 018°60'1171.5
2017-Jul-20 20:00N 69°42' E 019°00'1 2.5 020 / 81020.7 9.0 6.4 7.8
2017-Jul-20 19:30N 69°41' E 018°60'0 0.0
2017-Jul-20 19:00N 69°41' E 018°60'12240.4
2017-Jul-20 19:00N 69°42' E 019°00'1 2.5 010 / 81020.6 9.4 6.1 7.8
2017-Jul-20 18:29N 69°41' E 018°60'1 2.5
2017-Jul-20 18:00N 69°42' E 019°00'1171.5 020 / 81020.8 9.7 5.9 7.8
2017-Jul-20 17:59N 69°41' E 018°60'0 0.0
2017-Jul-20 17:29N 69°41' E 018°60'1 2.5
2017-Jul-20 17:00N 69°42' E 019°00'183.0 040 / 81020.8 9.6 6.0 7.8
2017-Jul-20 16:59N 69°41' E 018°60'0 0.0
2017-Jul-20 16:28N 69°41' E 018°60'1 2.6
2017-Jul-20 16:00N 69°42' E 019°00'156.7 030 / 81020.8 9.9 5.7 7.8
2017-Jul-20 15:58N 69°41' E 018°60'0 0.0
2017-Jul-20 15:28N 69°41' E 018°60'1 2.6
2017-Jul-20 15:00N 69°42' E 019°00'143.1 050 / 81020.6 10.2 5.5 7.8
2017-Jul-20 14:58N 69°41' E 018°60'0 0.0
2017-Jul-20 14:00N 69°41' E 018°60'189.6
2017-Jul-20 14:00N 69°42' E 019°00'1 2.5 050 / 61020.6 10.1 5.1 7.8
2017-Jul-20 13:30N 69°41' E 018°60'0 0.0
2017-Jul-20 13:00N 69°41' E 018°60'1166.0
2017-Jul-20 13:00N 69°42' E 019°00'1 2.5 050 / 61020.6 11.5 6.3 7.8
2017-Jul-20 12:30N 69°41' E 018°60'0 0.0
2017-Jul-20 12:00N 69°41' E 018°60'0 0.0
2017-Jul-20 11:29N 69°41' E 018°60'1 2.5
2017-Jul-20 11:00N 69°42' E 019°00'1166.0 100 / 61020.4 9.2 5.6 7.8
2017-Jul-20 10:59N 69°41' E 018°60'0 0.0
2017-Jul-20 10:29N 69°41' E 018°60'1 2.5
2017-Jul-20 10:00N 69°42' E 019°00'187.9 050 / 61020.2 10.9 6.5 7.8
2017-Jul-20 09:59N 69°41' E 018°60'0 0.0
2017-Jul-20 09:28N 69°41' E 018°60'1 2.6
2017-Jul-20 09:00N 69°42' E 019°00'156.5 170 / 21020.0 8.8 6.4 7.8
2017-Jul-20 08:58N 69°41' E 018°60'0 0.0
2017-Jul-20 08:28N 69°41' E 018°60'1 2.6
2017-Jul-20 08:00N 69°42' E 019°00'142.7 190 / 21020.0 7.9 6.7 7.8
2017-Jul-20 07:58N 69°41' E 018°60'0 0.0
2017-Jul-20 07:28N 69°41' E 018°60'0 0.0
2017-Jul-20 07:00N 69°41' E 018°60'1112.0
2017-Jul-20 07:00N 69°42' E 019°00'1 2.5 070 / 41020.0 7.6 6.5 7.8
2017-Jul-20 06:30N 69°41' E 018°60'2 4.8
2017-Jul-20 06:00N 69°43' E 019°03'1551.4
2017-Jul-20 06:00N 69°42' E 019°00'510.3 200 / 41019.8 7.7 6.3 7.9
2017-Jul-20 05:30N 69°46' E 019°08'4 8.2
2017-Jul-20 05:00N 69°48' E 019°19'049.8
2017-Jul-20 05:00N 69°48' E 019°18'4 8.8 250 / 121019.4 7.6 6.3 8.4
2017-Jul-20 04:30N 69°49' E 019°30'4 8.3
2017-Jul-20 04:00N 69°48' E 019°42'39143.8 260 / 161019.0 7.8 6.4 8.6
2017-Jul-20 03:59N 69°51' E 019°41'4 8.2
2017-Jul-20 03:30N 69°53' E 019°50'5 9.5
2017-Jul-20 03:00N 69°57' E 019°57'31120.2
2017-Jul-20 03:00N 70°00' E 020°00'2 4.3 310 / 121019.2 7.6 7.1 8.7
2017-Jul-20 02:30N 70°02' E 020°04'5 9.3
2017-Jul-20 02:00N 70°05' E 020°11'177.8
2017-Jul-20 02:00N 70°06' E 020°12'4 7.6 320 / 61018.8 7.9 7.0 9.5
2017-Jul-20 01:30N 70°09' E 020°18'4 7.9
2017-Jul-20 01:00N 70°13' E 020°23'139.4
2017-Jul-20 01:00N 70°12' E 020°24'4 8.6 310 / 81018.5 7.6 6.6 9.6
2017-Jul-20 00:30N 70°16' E 020°29'4 7.6
2017-Jul-20 00:00N 70°19' E 020°34'2201.1
2017-Jul-20 00:00N 70°18' E 020°36'510.2 290 / 161017.8 7.8 7.1 9.1
2017-Jul-19 23:30N 70°23' E 020°37'4 8.4
2017-Jul-19 23:01N 70°27' E 020°41'3187.3
2017-Jul-19 23:00N 70°30' E 020°42'2 3.4 290 / 171017.0 7.9 7.1 9.6
2017-Jul-19 22:30N 70°31' E 020°46'4 8.7
2017-Jul-19 22:00N 70°35' E 020°50'1443.3
2017-Jul-19 22:00N 70°36' E 020°48'4 8.1 300 / 171016.7 8.8 7.5 9.6
2017-Jul-19 21:30N 70°39' E 020°54'3 6.3
2017-Jul-19 21:00N 70°42' E 021°00'1212.2 300 / 171016.3 8.6 7.710.2
2017-Jul-19 20:00N 70°54' E 021°06'7 7.2 310 / 161015.7 9.1 7.7 9.8
2017-Jul-19 19:00N 71°00' E 021°18'1212.2 320 / 171015.4 8.8 7.7 9.5
2017-Jul-19 18:00N 71°12' E 021°24'7 7.1 320 / 191015.0 2.2 8.8 7.8 9.2
2017-Jul-19 17:00N 71°18' E 021°36'1212.2 310 / 191014.0 8.8 8.0 9.7
2017-Jul-19 16:00N 71°30' E 021°42'7 7.1 310 / 191013.4 8.8 8.2 9.4
2017-Jul-19 15:00N 71°36' E 021°54'13 6.3 310 / 231012.7 1.1 8.5 8.2 9.4
2017-Jul-19 13:00N 71°48' E 022°06'7 7.1 310 / 231011.1 8.8 7.9 9.3
2017-Jul-19 12:00N 71°54' E 022°18'1212.1 310 / 251010.0 2.2 8.6 7.8 9.8
2017-Jul-19 11:00N 72°06' E 022°24'7 7.0 310 / 251008.7 8.1 7.2 9.6
2017-Jul-19 10:00N 72°12' E 022°36'1212.1 290 / 251007.7 7.9 6.7 9.3
2017-Jul-19 09:00N 72°24' E 022°42'1212.1 280 / 251007.2 5.4 8.0 7.4 9.2
2017-Jul-19 08:00N 72°36' E 022°48'8 8.1 270 / 211006.1 7.8 7.5 9.0
2017-Jul-19 07:00N 72°42' E 023°06'6 6.3 270 / 251005.6 8.1 6.9 9.1
2017-Jul-19 06:00N 72°48' E 023°12'7 7.0 270 / 231004.9 5.4 8.2 7.3 9.1
2017-Jul-19 05:00N 72°54' E 023°24'1312.5 270 / 191004.5 7.9 7.4 8.8
2017-Jul-19 04:00N 73°06' E 023°36'6 6.2 270 / 171004.1 7.5 7.3 8.6
2017-Jul-19 03:00N 73°12' E 023°42'1212.5 270 / 141004.0 7.6 7.4 8.4
2017-Jul-19 02:00N 73°24' E 023°54'7 6.9 260 / 81003.5 7.8 7.8 8.1
2017-Jul-19 01:00N 73°30' E 024°06'6 6.2 100 / 81003.3 7.7 7.7 7.9
2017-Jul-19 00:00N 73°36' E 024°12'1212.5 100 / 121003.5 7.5 7.5 7.6
2017-Jul-18 23:00N 73°48' E 024°24'7 6.9 090 / 141003.8 7.3 7.3 7.3
2017-Jul-18 22:00N 73°54' E 024°36'6 6.2 090 / 121003.9 7.3 7.2 7.3
2017-Jul-18 21:00N 74°00' E 024°42'1212.4 080 / 171003.8 7.2 7.0 7.2
2017-Jul-18 20:00N 74°12' E 024°54'7 6.8 080 / 191003.7 7.0 6.6 7.2
2017-Jul-18 19:00N 74°18' E 025°06'6 6.2 080 / 171004.4 6.8 6.6 6.9
2017-Jul-18 18:00N 74°24' E 025°12'1212.4 080 / 191004.7 5.4 6.9 6.6 6.8
2017-Jul-18 17:00N 74°36' E 025°24'7 6.8 090 / 171005.3 7.0 6.5 6.8
2017-Jul-18 16:00N 74°42' E 025°36'7 6.8 090 / 191005.9 7.0 6.6 6.9
2017-Jul-18 15:00N 74°48' E 025°48'1212.1 090 / 171006.4 5.4 7.0 6.7 6.6
2017-Jul-18 14:00N 75°00' E 025°54'7 6.8 100 / 171007.2 7.2 6.8 6.3
2017-Jul-18 13:00N 75°06' E 026°06'1212.4 100 / 171007.4 7.2 6.7 6.0
2017-Jul-18 12:00N 75°18' E 026°18'7 6.7 100 / 161008.510.8 7.2 6.2 6.1
2017-Jul-18 11:00N 75°24' E 026°30'1312.8 100 / 161008.6 7.2 6.2 6.1
2017-Jul-18 10:00N 75°36' E 026°48'7 6.7 120 / 141009.2 7.1 6.3 6.0
2017-Jul-18 09:00N 75°42' E 027°00'6 6.2 110 / 171009.2 5.4 6.6 6.1 4.9
2017-Jul-18 08:00N 75°48' E 027°06'6 6.2 110 / 171009.4 6.4 5.8 5.4
2017-Jul-18 07:00N 75°54' E 027°12'7 6.7 120 / 171009.4 6.1 5.7 5.5
2017-Jul-18 06:00N 76°00' E 027°24'1212.3 110 / 171010.010.8 5.9 5.3 5.4
2017-Jul-18 05:00N 76°12' E 027°36'7 6.6 110 / 171010.0 5.4 5.0 4.5
2017-Jul-18 04:00N 76°18' E 027°48'1212.3 110 / 161010.3 5.8 5.0 3.7
2017-Jul-18 03:00N 76°30' E 028°00'7 7.3 100 / 141010.9 5.4 4.9 3.7
2017-Jul-18 02:00N 76°36' E 028°18'1212.1 110 / 121011.2 5.2 4.7 3.4
2017-Jul-18 01:00N 76°48' E 028°12'7 7.3 100 / 121011.3 4.8 4.5 3.0
2017-Jul-18 00:00N 76°54' E 027°54'1212.3 080 / 81011.3 4.4 4.2 2.7
2017-Jul-17 23:00N 77°06' E 027°42'7 7.2 090 / 61011.0 5.3 5.3 2.7
2017-Jul-17 22:00N 77°12' E 027°24'1312.6 140 / 61011.2 3.9 3.9 1.9
2017-Jul-17 21:00N 77°24' E 027°06'7 6.5 160 / 41010.6 3.3 3.2 1.7
2017-Jul-17 20:00N 77°30' E 026°54'1312.6 190 / 61010.0 3.8 3.8 0.2
2017-Jul-17 19:00N 77°42' E 026°36'6 6.1 210 / 101009.8 3.2 3.2-0.6
2017-Jul-17 18:00N 77°48' E 026°30'7 6.5 210 / 101009.2 0.1 0.8 0.8-1.2
2017-Jul-17 17:00N 77°54' E 026°18'1 1.3 200 / 101008.4 1.1 1.1-1.5
2017-Jul-17 16:00N 77°54' E 026°12'6 6.1 180 / 121007.9 1.4 1.3-1.5
2017-Jul-17 15:00N 78°00' E 026°06'6 6.5 170 / 81007.3 0.3 2.0 2.0-1.3
2017-Jul-17 14:00N 78°06' E 025°54'6 6.5 200 / 121006.8 1.2 1.2-1.2
2017-Jul-17 13:00N 78°12' E 025°42'1312.5 170 / 161006.7 1.3 1.2-0.1
2017-Jul-17 12:00N 78°24' E 025°24'6 6.5 150 / 171006.1 0.1 1.6 1.6 0.8
2017-Jul-17 11:00N 78°30' E 025°12'0 0.0 150 / 171005.9 1.4 1.2-0.8
2017-Jul-17 10:00N 78°30' E 025°12'1 1.2 150 / 171005.6 1.5 1.5-0.5
2017-Jul-17 09:00N 78°30' E 025°06'6 6.5 140 / 191005.3 5.4 1.7 1.6 0.3
2017-Jul-17 08:00N 78°36' E 024°54'8 7.6 150 / 191005.3 2.2 2.0 2.4
2017-Jul-17 07:00N 78°42' E 024°30'1 1.2 140 / 121005.2 2.4 2.3 0.2
2017-Jul-17 06:00N 78°42' E 024°24'1 1.2 150 / 141005.010.8 2.4 2.1 1.4
2017-Jul-17 05:00N 78°42' E 024°30'0 0.0 140 / 161004.9 1.8 1.8 0.1
2017-Jul-17 04:00N 78°42' E 024°30'0 0.0 140 / 171004.9 1.4 1.4-0.0
2017-Jul-17 03:00N 78°42' E 024°30'2 2.4 150 / 161005.2 1.5 1.5 0.9
2017-Jul-17 02:00N 78°42' E 024°42'1 1.2 180 / 231004.6 1.6 1.6 0.2
2017-Jul-17 01:00N 78°42' E 024°36'1 1.2 170 / 191004.6 1.7 1.7 0.8
2017-Jul-17 00:00N 78°42' E 024°30'1 1.2 180 / 211004.3 1.6 1.6 1.0
2017-Jul-16 23:00N 78°42' E 024°24'0 0.0 190 / 191004.0 1.9 1.9 1.1
2017-Jul-16 22:00N 78°42' E 024°24'1 1.2 160 / 161004.0 1.5 1.5 1.1
2017-Jul-16 21:00N 78°42' E 024°18'0 0.0 160 / 141003.9 1.2 1.2 1.5
2017-Jul-16 20:00N 78°42' E 024°18'0 0.0 140 / 121003.7 1.0 0.8 1.6
2017-Jul-16 19:00N 78°42' E 024°18'2 2.4 160 / 61003.7 1.1 1.0-0.0
2017-Jul-16 18:00N 78°42' E 024°06'4 3.5 170 / 61003.710.8 1.1 1.0 1.3
2017-Jul-16 17:00N 78°42' E 023°48'5 4.7 160 / 81003.4 1.0 1.0 0.6
2017-Jul-16 16:00N 78°42' E 023°24'0 0.0 170 / 81003.9 0.8 0.8 0.4
2017-Jul-16 15:00N 78°42' E 023°24'0 0.0 110 / 81003.7 2.2 0.4 0.3 0.8
2017-Jul-16 14:00N 78°42' E 023°24'4 3.5 090 / 101004.0 0.2 0.1 1.4
2017-Jul-16 13:00N 78°42' E 023°06'9 9.4 080 / 121004.5 0.3-0.4 1.2
2017-Jul-16 12:00N 78°42' E 023°54'7 7.1 080 / 121005.5 2.2 -0.1-0.1 0.6
2017-Jul-16 11:00N 78°42' E 024°30'0 0.0 080 / 121006.4 -0.2-0.2-0.5
2017-Jul-16 10:00N 78°42' E 024°30'6 6.4 080 / 141007.0 -0.1-0.1 0.7
2017-Jul-16 09:00N 78°36' E 024°42'8 7.7 090 / 141007.7 2.2 -0.0-0.1 0.2
2017-Jul-16 08:00N 78°30' E 025°06'0 0.0 090 / 141008.6 -0.2-0.3-0.8
2017-Jul-16 07:00N 78°30' E 025°06'1 1.2 080 / 141008.9 -0.2-0.2 0.4
2017-Jul-16 06:00N 78°30' E 025°12'8 7.7 090 / 121010.3 5.4 -0.2-0.2-0.6
2017-Jul-16 05:00N 78°36' E 024°48'7 7.0 100 / 141010.7 -0.1-0.1 2.0
2017-Jul-16 04:00N 78°42' E 024°30'6 6.4 100 / 121012.1 -0.3-0.3 0.8
2017-Jul-16 03:00N 78°48' E 024°42'6 6.4 100 / 101013.0 -0.3-0.3-1.5
2017-Jul-16 02:00N 78°54' E 024°54'8 7.6 100 / 81013.3 -0.0-0.0-1.2
2017-Jul-16 01:00N 79°00' E 025°18'3 3.4 140 / 81014.2 -0.1-0.1-1.0
2017-Jul-16 00:00N 79°00' E 025°36'8 7.5 150 / 81014.6 -0.4-0.4-0.7
2017-Jul-15 23:00N 79°06' E 026°00'8 7.5 140 / 61015.1 -0.2-0.2-1.2
2017-Jul-15 22:00N 79°12' E 026°24'7 7.5 180 / 81015.2 -0.5-0.5-1.3
2017-Jul-15 21:00N 79°18' E 026°48'7 6.9 180 / 81015.6 -0.1-0.3-1.2
2017-Jul-15 20:00N 79°24' E 027°06'1 1.1 180 / 61015.7 0.2-0.2-0.6
2017-Jul-15 19:00N 79°24' E 027°12'0 0.0 170 / 81015.5 0.8-0.0-1.3
2017-Jul-15 18:00N 79°24' E 027°12'6 6.1 170 / 81015.710.8 1.6-0.0-1.1
2017-Jul-15 17:00N 79°18' E 027°06'1 1.1 160 / 81015.7 1.6-0.1-1.0
2017-Jul-15 16:00N 79°18' E 027°00'8 8.2 190 / 21015.4 1.7 0.1-1.2
2017-Jul-15 15:00N 79°24' E 027°30'0 0.0 190 / 61015.610.8 1.9 0.7-1.4
2017-Jul-15 14:00N 79°24' E 027°30'2 2.2 170 / 121015.2 2.5 0.5-1.1
2017-Jul-15 13:00N 79°24' E 027°18'7 6.6 200 / 81014.9 4.6 1.8-0.8
2017-Jul-15 12:00N 79°24' E 027°54'6 6.4 200 / 121014.710.8 1.8 0.2-1.3
2017-Jul-15 11:00N 79°30' E 028°06'0 0.0 180 / 101014.5 2.1 0.5-1.5
2017-Jul-15 10:00N 79°30' E 028°06'3 3.3 170 / 61014.0 1.9 0.2-1.5
2017-Jul-15 09:00N 79°30' E 028°24'6 6.4 200 / 81013.627.0 1.4 0.2-1.6
2017-Jul-15 08:00N 79°36' E 028°36'6 6.4 180 / 61012.8 1.2-0.0-1.5
2017-Jul-15 07:00N 79°42' E 028°48'3 3.2 220 / 101012.2 1.2-0.1-1.3
2017-Jul-15 06:00N 79°42' E 029°06'7 6.8 220 / 161011.310.8 1.6-0.1-1.3
2017-Jul-15 05:00N 79°48' E 029°24'7 6.8 220 / 121010.8 1.4-0.8-1.6
2017-Jul-15 04:00N 79°54' E 029°42'7 6.8 230 / 161009.7 1.5-0.6-1.7
2017-Jul-15 03:00N 80°00' E 030°00'6 6.1 240 / 161009.2 2.7-0.6-1.7
2017-Jul-15 02:00N 80°06' E 029°54'6 6.1 230 / 161008.2 2.6-0.6-1.7
2017-Jul-15 01:00N 80°12' E 030°00'6 6.3 250 / 141007.1 1.9-0.6-1.7
2017-Jul-15 00:00N 80°18' E 029°48'6 6.0 250 / 211006.0 3.3 0.2-1.7
2017-Jul-14 23:00N 80°24' E 029°48'2 2.0 240 / 171005.0 1.7 0.3-1.7
2017-Jul-14 22:00N 80°24' E 029°36'1212.0 250 / 231003.4 1.7 0.3-1.7
2017-Jul-14 21:00N 80°36' E 029°36'1 1.0 260 / 231002.5 1.4-0.0-1.7
2017-Jul-14 20:00N 80°36' E 029°30'0 0.0 250 / 291001.2 1.1 0.2-1.6
2017-Jul-14 19:00N 80°36' E 029°30'4 3.9 250 / 251000.6 0.4-0.0-1.7
2017-Jul-14 18:00N 80°36' E 029°06'7 7.2 250 / 231000.2 2.2 0.4-0.1-1.7
2017-Jul-14 17:00N 80°42' E 028°42'7 7.1 250 / 27998.9 0.3-0.1-1.6
2017-Jul-14 16:00N 80°48' E 028°18'7 6.6 240 / 25997.8 -0.1-0.1-1.6
2017-Jul-14 15:00N 80°54' E 028°00'2 1.9 250 / 25997.3 2.2 -0.1-0.5-1.6
2017-Jul-14 14:00N 80°54' E 027°48'7 7.1 240 / 29996.5 0.5-0.7-1.6
2017-Jul-14 13:00N 81°00' E 027°24'5 4.7 240 / 29996.0 0.3-0.5-1.6
2017-Jul-14 12:00N 81°00' E 026°54'1 0.9 230 / 25995.810.8 0.1-0.5-1.6
2017-Jul-14 11:00N 81°00' E 026°48'2 1.9 240 / 25995.7 -0.0-0.8-1.6
2017-Jul-14 10:00N 81°00' E 026°36'7 6.6 230 / 23995.2 -0.1-0.7-1.7
2017-Jul-14 09:00N 81°06' E 026°18'6 5.6 240 / 21994.910.8 -0.0-0.5-1.6
2017-Jul-14 08:00N 81°06' E 025°42'5 4.6 240 / 23994.5 -0.3-0.7-1.6
2017-Jul-14 07:00N 81°06' E 025°12'6 5.6 250 / 21994.2 -0.3-0.5-1.6
2017-Jul-14 06:00N 81°06' E 024°36'6 5.6 250 / 21993.810.8 -0.3-0.6-1.7
2017-Jul-14 05:00N 81°06' E 024°00'6 6.5 250 / 19993.6 -0.3-0.3-1.6
2017-Jul-14 04:00N 81°06' E 023°18'4 3.7 250 / 16994.0 -0.2-0.2-1.6
2017-Jul-14 03:00N 81°06' E 022°54'6 6.5 270 / 14994.2 -0.2-0.3-1.7
2017-Jul-14 02:00N 81°06' E 022°12'8 8.2 300 / 10994.7 0.3 0.3-1.6
2017-Jul-14 01:00N 81°12' E 021°36'   340 / 8995.4 -0.1-0.1-1.6

Dump ship's entire track history